createdAt,value
2022-09-18T06:01:33.207Z,6.80
2022-09-18T06:20:18.754Z,7.70
2022-09-18T06:25:12.744Z,8.00
2022-09-18T06:40:13.186Z,8.80
2022-09-18T07:00:34.234Z,9.10
2022-09-18T07:05:32.438Z,9.50
2022-09-18T07:22:06.695Z,10.80
2022-09-18T07:27:06.197Z,11.10
2022-09-18T07:32:00.884Z,11.40
2022-09-18T07:36:56.964Z,11.70
2022-09-18T07:41:54.014Z,12.10
2022-09-18T07:46:47.987Z,12.30
2022-09-18T07:51:41.981Z,12.60
2022-09-18T07:56:36.653Z,13.20
2022-09-18T08:01:35.274Z,13.50
2022-09-18T08:06:31.707Z,13.70
2022-09-18T08:11:41.040Z,13.80
2022-09-18T08:16:54.691Z,13.90
2022-09-18T08:22:11.237Z,14.10
2022-09-18T08:27:11.131Z,14.50
2022-09-18T08:32:09.874Z,14.70
2022-09-18T08:37:04.602Z,15.00
2022-09-18T08:42:26.341Z,15.20
2022-09-18T08:47:26.917Z,15.40
2022-09-18T08:52:26.503Z,15.30
2022-09-18T08:57:37.170Z,15.40
2022-09-18T09:02:44.373Z,15.80
2022-09-18T09:08:05.013Z,16.20
2022-09-18T09:13:11.654Z,16.40
2022-09-18T09:18:30.151Z,16.30
2022-09-18T09:23:43.357Z,16.60
2022-09-18T09:28:54.129Z,16.70
2022-09-18T09:34:17.578Z,16.40
2022-09-18T09:39:45.598Z,16.90
2022-09-18T09:44:44.426Z,17.10
2022-09-18T09:49:52.182Z,17.20
2022-09-18T09:54:46.470Z,17.20
2022-09-18T09:59:49.100Z,17.10
2022-09-18T10:04:59.223Z,17.50
2022-09-18T10:09:58.499Z,17.50
2022-09-18T10:14:55.398Z,17.50
2022-09-18T10:19:54.969Z,17.60
2022-09-18T10:24:58.178Z,17.80
2022-09-18T10:29:55.423Z,17.80
2022-09-18T10:35:02.583Z,18.40
2022-09-18T10:40:00.416Z,18.60
2022-09-18T10:45:01.713Z,18.50
2022-09-18T10:50:06.453Z,18.40
2022-09-18T10:55:13.013Z,18.50
2022-09-18T11:00:48.157Z,18.30
2022-09-18T11:05:51.306Z,18.80
2022-09-18T11:10:50.736Z,19.00
2022-09-18T11:15:54.302Z,18.50
2022-09-18T11:20:50.734Z,18.40
2022-09-18T11:25:48.230Z,18.60
2022-09-18T11:30:58.307Z,18.00
2022-09-18T11:36:01.801Z,17.90
2022-09-18T11:40:58.656Z,17.80
2022-09-18T11:46:10.323Z,17.90
2022-09-18T11:51:15.187Z,17.90
2022-09-18T11:56:14.538Z,17.60
2022-09-18T12:01:23.346Z,17.60
2022-09-18T12:06:27.466Z,17.60
2022-09-18T12:11:26.674Z,17.60
2022-09-18T12:16:28.554Z,18.30
2022-09-18T12:21:36.235Z,18.50
2022-09-18T12:26:42.819Z,18.20
2022-09-18T12:31:45.225Z,17.70
2022-09-18T12:37:05.541Z,17.50
2022-09-18T12:42:11.710Z,17.30
2022-09-18T12:47:36.078Z,17.00
2022-09-18T12:53:06.629Z,16.80
2022-09-18T12:58:14.150Z,16.70
2022-09-18T13:03:22.202Z,16.70
2022-09-18T13:08:23.872Z,16.80
2022-09-18T13:13:24.373Z,16.90
2022-09-18T13:18:54.479Z,16.90
2022-09-18T13:23:53.254Z,17.00
2022-09-18T13:28:48.072Z,17.00
2022-09-18T13:33:51.447Z,17.00
2022-09-18T13:38:51.373Z,16.90
2022-09-18T13:43:53.734Z,16.80
2022-09-18T13:48:56.180Z,16.70
2022-09-18T13:54:19.225Z,16.70
2022-09-18T13:59:24.211Z,16.70
2022-09-18T14:04:59.285Z,16.70
2022-09-18T14:10:01.838Z,16.60
2022-09-18T14:15:28.045Z,16.60
2022-09-18T14:20:24.460Z,16.70
2022-09-18T14:25:47.333Z,16.70
2022-09-18T14:31:15.087Z,16.70
2022-09-18T14:36:14.800Z,16.70
2022-09-18T14:41:19.663Z,16.70
2022-09-18T14:46:20.305Z,16.70
2022-09-18T14:51:21.468Z,16.80
2022-09-18T14:56:19.266Z,16.70
2022-09-18T15:01:18.790Z,16.70
2022-09-18T15:06:19.494Z,16.70
2022-09-18T15:11:18.223Z,16.70
2022-09-18T15:16:20.580Z,16.70
2022-09-18T15:28:06.336Z,16.70
2022-09-18T15:33:04.375Z,16.60
2022-09-18T15:38:03.296Z,16.60
2022-09-18T15:43:00.122Z,16.40
2022-09-18T15:47:56.513Z,16.30
2022-09-18T15:53:06.213Z,16.30
2022-09-18T15:58:02.514Z,16.30
2022-09-18T16:03:00.612Z,16.20
2022-09-18T16:07:58.740Z,16.10
2022-09-18T16:12:52.937Z,16.00
2022-09-18T16:18:02.893Z,15.90
2022-09-18T16:23:00.588Z,15.80
2022-09-18T16:27:57.312Z,15.80
2022-09-18T16:32:51.509Z,15.80
2022-09-18T16:37:47.277Z,15.70
2022-09-18T16:42:41.506Z,15.70
2022-09-18T16:47:35.205Z,15.50
2022-09-18T16:52:28.902Z,15.30
2022-09-18T16:57:28.436Z,15.00
2022-09-18T17:02:26.326Z,14.90
2022-09-18T17:07:20.202Z,14.80
2022-09-18T17:12:14.034Z,14.60
2022-09-18T17:17:11.746Z,14.30
2022-09-18T17:22:05.702Z,14.10
2022-09-18T17:26:59.993Z,13.90
2022-09-18T17:31:54.263Z,13.70
2022-09-18T17:36:49.809Z,13.50
2022-09-18T17:41:45.102Z,13.40
2022-09-18T17:46:38.775Z,13.30
2022-09-18T17:51:33.403Z,13.20
2022-09-18T17:56:30.047Z,13.10
2022-09-18T18:01:23.750Z,13.00
2022-09-18T18:06:21.783Z,12.90
2022-09-18T18:11:17.270Z,12.80
2022-09-18T18:16:15.197Z,12.80
2022-09-18T18:21:09.951Z,12.60
2022-09-18T18:26:04.513Z,12.60
2022-09-18T18:31:03.850Z,12.50
2022-09-18T18:36:08.860Z,12.30
2022-09-18T18:41:03.690Z,12.20
